Time;durP1;ratioP1;P1;durP2;ratioP2;P2;SDS_P1;SDS_P2;PMS_P1;PMS_P2;Temp;Humidity;BMP_temperature;BMP_pressure;BME280_temperature;BME280_humidity;BME280_pressure;Samples;Min_cycle;Max_cycle;Signal;HPM_P1;HPM_P2
2022/01/30 00:01:18;;;;;;;1.20;0.80;;;;;;;5.77;100.00;99917.28;5046980;28;20042;-82
2022/01/30 00:04:11;;;;;;;2.08;0.95;;;;;;;5.76;100.00;99907.47;5024687;28;20592;-82
2022/01/30 00:07:07;;;;;;;1.00;0.80;;;;;;;5.66;100.00;99894.81;5046491;28;20052;-83
2022/01/30 00:09:45;;;;;;;0.88;0.80;;;;;;;5.66;100.00;99886.72;5049423;28;20087;-83
2022/01/30 00:12:15;;;;;;;1.20;1.10;;;;;;;5.74;100.00;99898.69;5048781;28;20489;-82
2022/01/30 00:14:53;;;;;;;0.90;0.90;;;;;;;5.70;100.00;99892.69;5049684;28;20041;-83
2022/01/30 00:17:35;;;;;;;1.38;0.90;;;;;;;5.66;100.00;99894.81;5040720;28;20088;-84
2022/01/30 00:23:10;;;;;;;1.42;0.90;;;;;;;5.77;100.00;99910.03;5046455;28;20057;-82
2022/01/30 00:25:55;;;;;;;1.92;1.00;;;;;;;5.81;100.00;99898.00;5048192;28;20044;-82
2022/01/30 00:28:25;;;;;;;1.20;0.88;;;;;;;5.75;100.00;99885.03;5038417;28;20045;-83
2022/01/30 00:30:55;;;;;;;2.58;1.30;;;;;;;5.78;100.00;99890.16;5013924;28;20049;-83
2022/01/30 00:33:27;;;;;;;2.35;1.25;;;;;;;5.79;100.00;99888.31;5033381;28;20052;-83
2022/01/30 00:35:56;;;;;;;2.33;1.10;;;;;;;5.86;100.00;99897.59;5046276;28;20049;-83
2022/01/30 00:38:26;;;;;;;0.88;0.88;;;;;;;5.78;100.00;99878.50;5048075;28;20053;-83
2022/01/30 00:40:55;;;;;;;1.08;0.90;;;;;;;5.83;100.00;99887.91;5035042;28;20503;-83
2022/01/30 00:43:28;;;;;;;2.58;1.35;;;;;;;5.76;100.00;99875.09;5034186;28;20053;-83
2022/01/30 00:45:58;;;;;;;3.28;1.10;;;;;;;5.76;100.00;99869.69;5048799;28;20077;-84
2022/01/30 00:48:26;;;;;;;;;;;;;;;5.88;100.00;99892.03;5053215;28;20132;-84
2022/01/30 00:50:53;;;;;;;2.10;1.30;;;;;;;5.75;100.00;99876.97;5052923;28;19920;-83
2022/01/30 00:53:23;;;;;;;1.10;1.00;;;;;;;5.75;100.00;99884.16;5054928;28;20462;-83
2022/01/30 00:55:53;;;;;;;1.25;1.10;;;;;;;5.75;100.00;99886.88;5054877;28;20087;-83
2022/01/30 00:58:19;;;;;;;1.08;0.98;;;;;;;5.77;100.00;99896.53;5072119;28;20056;-84
2022/01/30 01:00:46;;;;;;;1.85;1.23;;;;;;;5.81;100.00;99902.50;5071215;28;20467;-83
2022/01/30 01:03:17;;;;;;;1.58;1.33;;;;;;;5.81;100.00;99913.31;5056356;28;20110;-83
2022/01/30 01:05:55;;;;;;;2.58;1.15;;;;;;;5.87;100.00;99895.72;5054615;28;20119;-82
2022/01/30 01:08:51;;;;;;;2.95;1.35;;;;;;;5.76;100.00;99892.13;5051230;28;20110;-82
2022/01/30 01:23:25;;;;;;;2.92;1.40;;;;;;;5.75;100.00;99914.72;4992111;28;20077;-83
2022/01/30 01:25:52;;;;;;;1.10;1.00;;;;;;;5.78;100.00;99927.94;5033781;28;20064;-82
2022/01/30 01:28:24;;;;;;;2.25;1.40;;;;;;;5.68;100.00;99898.22;5035371;28;20060;-81
2022/01/30 01:30:51;;;;;;;1.90;1.23;;;;;;;5.80;100.00;99917.03;5054382;28;20084;-82
2022/01/30 01:33:21;;;;;;;2.55;1.70;;;;;;;5.67;100.00;99885.72;5059252;28;20131;-84
2022/01/30 01:35:48;;;;;;;3.33;1.20;;;;;;;5.74;100.00;99891.44;5073916;28;20105;-80
2022/01/30 01:38:20;;;;;;;1.52;1.20;;;;;;;5.78;100.00;99889.28;5074403;28;20103;-82
2022/01/30 01:40:53;;;;;;;1.55;1.30;;;;;;;5.77;100.00;99893.84;5073917;28;20048;-83
2022/01/30 01:43:26;;;;;;;1.73;1.20;;;;;;;5.68;100.00;99903.59;5073480;28;20102;-82
2022/01/30 01:45:57;;;;;;;5.68;1.45;;;;;;;5.76;100.00;99910.19;5072901;28;20053;-82
2022/01/30 01:48:24;;;;;;;2.63;1.42;;;;;;;5.78;100.00;99909.06;5060319;28;20393;-82
2022/01/30 01:51:03;;;;;;;1.20;1.08;;;;;;;5.79;100.00;99913.44;5061806;28;20083;-83
2022/01/30 01:53:32;;;;;;;1.27;1.10;;;;;;;5.75;100.00;99903.94;5067832;28;20048;-82
2022/01/30 01:56:02;;;;;;;1.80;1.10;;;;;;;5.73;100.00;99891.56;5069991;28;20052;-82
2022/01/30 01:58:29;;;;;;;1.23;1.13;;;;;;;5.73;100.00;99886.16;5072291;28;20044;-82
2022/01/30 02:00:59;;;;;;;1.40;1.30;;;;;;;5.80;100.00;99904.38;5070992;28;20044;-82
2022/01/30 02:03:26;;;;;;;1.10;0.80;;;;;;;5.68;100.00;99892.81;5067748;28;20051;-85
2022/01/30 02:05:59;;;;;;;1.38;1.27;;;;;;;5.79;100.00;99888.31;5034643;28;20084;-82
2022/01/30 02:08:34;;;;;;;1.38;1.15;;;;;;;5.78;100.00;99886.59;5052274;28;20470;-83
2022/01/30 02:11:06;;;;;;;2.92;1.20;;;;;;;5.81;100.00;99899.81;5068826;28;20053;-82
2022/01/30 02:25:04;;;;;;;1.20;1.00;;;;;;;5.68;100.00;99879.31;5057401;28;20578;-83
2022/01/30 02:27:34;;;;;;;0.90;0.90;;;;;;;5.62;100.00;99876.34;5072272;28;20466;-82
2022/01/30 02:30:06;;;;;;;4.63;0.88;;;;;;;5.68;100.00;99873.94;5052478;28;20045;-82
2022/01/30 02:32:33;;;;;;;3.50;1.42;;;;;;;5.77;100.00;99895.69;5056374;28;20045;-82
2022/01/30 02:35:02;;;;;;;1.23;0.95;;;;;;;5.58;100.00;99885.69;5071506;28;20053;-82
2022/01/30 02:37:34;;;;;;;1.85;0.82;;;;;;;5.65;100.00;99900.34;5056636;28;20045;-82
2022/01/30 02:40:03;;;;;;;1.73;0.90;;;;;;;5.59;100.00;99892.78;5051646;28;20603;-82
2022/01/30 02:42:35;;;;;;;1.05;0.88;;;;;;;5.59;100.00;99892.78;5051608;28;20503;-82
2022/01/30 02:45:08;;;;;;;1.27;0.95;;;;;;;5.54;100.00;99874.31;5033816;28;20051;-83
2022/01/30 02:47:51;;;;;;;2.15;1.08;;;;;;;5.58;100.00;99886.53;5051846;28;20103;-82
2022/01/30 02:50:33;;;;;;;1.48;0.90;;;;;;;5.54;100.00;99898.59;5051526;28;20045;-82
2022/01/30 02:53:09;;;;;;;1.23;1.13;;;;;;;5.46;100.00;99893.00;5051197;28;20045;-82
2022/01/30 02:55:38;;;;;;;1.38;1.27;;;;;;;5.49;100.00;99901.69;5053699;28;20071;-82
2022/01/30 02:58:08;;;;;;;1.63;1.23;;;;;;;5.43;100.00;99896.81;5051063;28;20325;-82
2022/01/30 03:00:40;;;;;;;1.02;0.90;;;;;;;5.40;100.00;99894.38;5056223;28;20155;-82
2022/01/30 03:03:08;;;;;;;2.40;1.77;;;;;;;5.42;100.00;99889.72;5071159;28;20048;-82
2022/01/30 03:05:35;;;;;;;2.10;1.70;;;;;;;5.39;100.00;99898.09;5071217;28;20097;-82
2022/01/30 03:08:04;;;;;;;1.80;1.40;;;;;;;5.54;100.00;99919.28;5056470;28;20412;-82
2022/01/30 03:10:34;;;;;;;2.35;1.48;;;;;;;5.51;100.00;99920.44;5051298;28;20132;-82
2022/01/30 03:13:02;;;;;;;;;;;;;;;5.53;100.00;99925.69;5053815;28;20060;-82
2022/01/30 03:15:29;;;;;;;1.92;1.55;;;;;;;5.42;100.00;99918.50;5051100;28;19928;-82
2022/01/30 03:18:00;;;;;;;2.67;1.60;;;;;;;5.51;100.00;99928.53;5051160;28;20103;-83
2022/01/30 03:20:32;;;;;;;4.00;1.73;;;;;;;5.39;100.00;99913.38;5046294;28;20053;-83
2022/01/30 03:23:02;;;;;;;2.75;1.33;;;;;;;5.42;100.00;99913.13;5051240;28;20450;-83
2022/01/30 03:25:32;;;;;;;1.40;1.30;;;;;;;5.41;100.00;99917.66;5050644;28;20053;-83
2022/01/30 03:28:01;;;;;;;3.10;1.70;;;;;;;5.41;100.00;99912.28;5050679;28;20480;-82
2022/01/30 03:30:32;;;;;;;5.10;1.48;;;;;;;5.44;100.00;99924.66;5040782;28;20554;-82
2022/01/30 03:33:02;;;;;;;2.80;1.30;;;;;;;5.49;100.00;99927.78;5054377;28;20126;-83
2022/01/30 03:35:33;;;;;;;2.42;1.45;;;;;;;5.49;100.00;99941.28;5055296;28;20048;-83
2022/01/30 03:38:00;;;;;;;3.15;1.48;;;;;;;5.47;100.00;99933.31;5053575;28;20492;-82
2022/01/30 03:40:27;;;;;;;9.07;1.48;;;;;;;5.43;100.00;99931.88;5053739;28;20068;-83
2022/01/30 03:42:55;;;;;;;3.17;1.50;;;;;;;5.50;100.00;99951.94;5053246;28;20057;-82
2022/01/30 03:45:22;;;;;;;2.38;1.65;;;;;;;5.49;100.00;99952.06;5059889;28;20044;-82
2022/01/30 03:47:51;;;;;;;1.77;1.25;;;;;;;5.38;100.00;99942.22;5066566;28;20148;-83
2022/01/30 03:50:19;;;;;;;3.92;1.73;;;;;;;5.49;100.00;99963.72;5072859;28;20456;-82
2022/01/30 03:52:48;;;;;;;4.03;1.80;;;;;;;5.37;100.00;99943.19;5056025;28;20073;-82
2022/01/30 03:55:15;;;;;;;1.85;1.58;;;;;;;5.41;100.00;99958.13;5053128;28;20056;-82
2022/01/30 03:57:41;;;;;;;3.13;1.00;;;;;;;5.32;100.00;99961.59;5053415;28;20076;-83
2022/01/30 04:00:10;;;;;;;3.20;1.27;;;;;;;5.37;100.00;99963.91;5053556;28;20076;-82
2022/01/30 04:02:37;;;;;;;2.23;1.37;;;;;;;5.39;100.00;99962.81;5053108;28;20071;-82
2022/01/30 04:05:05;;;;;;;2.80;1.42;;;;;;;5.41;100.00;99974.28;5054766;28;20299;-82
2022/01/30 04:07:40;;;;;;;1.48;1.15;;;;;;;5.30;100.00;99956.34;5053186;28;20048;-83
2022/01/30 04:10:09;;;;;;;5.22;1.70;;;;;;;5.36;100.00;99973.84;5053574;28;20068;-83
2022/01/30 04:12:36;;;;;;;3.67;1.60;;;;;;;5.35;100.00;99976.69;5055116;28;20045;-83
2022/01/30 04:15:04;;;;;;;4.00;1.30;;;;;;;5.33;100.00;99979.50;5057145;28;20049;-83
2022/01/30 04:17:32;;;;;;;2.13;1.50;;;;;;;5.27;100.00;99971.94;5056793;28;20041;-83
2022/01/30 04:19:59;;;;;;;3.17;1.50;;;;;;;5.32;100.00;99984.03;5039118;28;20408;-83
2022/01/30 04:22:28;;;;;;;4.10;1.80;;;;;;;5.26;100.00;99986.41;5049788;28;20480;-83
2022/01/30 04:24:55;;;;;;;4.50;2.00;;;;;;;5.27;100.00;99983.56;5057111;28;20073;-82
2022/01/30 04:27:21;;;;;;;4.38;1.73;;;;;;;5.16;100.00;99963.91;5057485;28;20049;-83
2022/01/30 04:29:50;;;;;;;3.50;1.77;;;;;;;5.19;100.00;99986.06;5057311;28;20128;-83
2022/01/30 04:32:22;;;;;;;2.72;1.38;;;;;;;5.16;100.00;99972.84;5057157;28;20132;-83
2022/01/30 04:34:56;;;;;;;2.63;1.55;;;;;;;5.13;100.00;99967.72;5056617;28;20049;-83
2022/01/30 04:37:30;;;;;;;3.88;1.65;;;;;;;5.07;100.00;99960.16;5055461;28;20057;-83
2022/01/30 04:40:41;;;;;;;2.05;1.27;;;;;;;5.11;100.00;99975.94;5056678;28;20509;-83
2022/01/30 04:54:55;;;;;;;5.55;1.98;;;;;;;5.12;100.00;99982.19;5054433;28;20076;-84
2022/01/30 04:57:35;;;;;;;4.07;1.50;;;;;;;5.11;100.00;99994.78;5056348;28;20408;-84
2022/01/30 05:00:24;;;;;;;5.10;1.77;;;;;;;5.09;100.00;99977.91;5056695;28;20061;-83
2022/01/30 05:02:58;;;;;;;4.35;2.10;;;;;;;5.00;100.00;99980.50;5056304;28;20455;-83
2022/01/30 05:08:13;;;;;;;11.35;2.25;;;;;;;4.99;100.00;99971.56;5055956;28;20053;-83
2022/01/30 05:10:43;;;;;;;4.55;1.75;;;;;;;5.00;100.00;99985.91;5056666;28;20404;-84
2022/01/30 05:13:15;;;;;;;7.63;2.03;;;;;;;5.06;100.00;99993.47;5055498;28;20057;-84
2022/01/30 05:15:43;;;;;;;10.10;2.22;;;;;;;5.00;100.00;100005.63;5056832;28;20455;-84
2022/01/30 05:18:21;;;;;;;5.43;2.20;;;;;;;4.88;100.00;99987.81;5056357;28;20139;-84
2022/01/30 05:20:50;;;;;;;3.85;1.52;;;;;;;4.84;100.00;99995.28;5056296;28;20212;-83
2022/01/30 05:23:20;;;;;;;3.58;2.22;;;;;;;4.82;100.00;99993.69;5055349;28;20045;-82
2022/01/30 05:25:48;;;;;;;7.60;2.17;;;;;;;4.91;100.00;100020.72;5056000;28;20056;-82
2022/01/30 05:28:16;;;;;;;5.40;2.25;;;;;;;4.75;100.00;100002.28;5048281;28;20102;-82
2022/01/30 05:30:46;;;;;;;8.82;2.20;;;;;;;4.71;100.00;99998.16;5055750;28;20052;-82
2022/01/30 05:33:14;;;;;;;6.85;2.28;;;;;;;4.72;100.00;100009.75;5056135;28;20462;-82
2022/01/30 05:35:44;;;;;;;3.97;2.38;;;;;;;4.71;100.00;100002.66;5055950;28;20053;-82
2022/01/30 05:38:12;;;;;;;7.63;2.50;;;;;;;4.62;100.00;100023.13;5055715;28;20098;-82
2022/01/30 05:40:41;;;;;;;3.58;2.42;;;;;;;4.54;100.00;100012.13;5055986;28;20091;-82
2022/01/30 05:43:07;;;;;;;8.02;2.10;;;;;;;4.50;100.00;100014.22;5054793;28;20052;-82
2022/01/30 05:45:38;;;;;;;6.82;2.50;;;;;;;4.47;100.00;100030.63;5054720;28;20555;-82
2022/01/30 05:48:10;;;;;;;4.50;2.30;;;;;;;4.51;100.00;100040.16;5055155;28;20060;-82
2022/01/30 05:50:41;;;;;;;3.88;2.10;;;;;;;4.35;100.00;100037.88;5055170;28;20484;-82
2022/01/30 05:53:08;;;;;;;7.38;2.30;;;;;;;4.39;100.00;100046.53;5068788;28;20048;-82
2022/01/30 05:55:44;;;;;;;5.85;2.15;;;;;;;4.41;100.00;100060.72;5075582;28;20051;-82
2022/01/30 05:58:21;;;;;;;2.75;2.10;;;;;;;4.37;100.00;100054.75;5075740;28;20048;-83
2022/01/30 06:00:48;;;;;;;9.73;2.17;;;;;;;4.50;100.00;100069.91;5047744;28;20041;-83
2022/01/30 06:03:16;;;;;;;7.53;2.40;;;;;;;4.49;100.00;100089.75;5055093;28;20055;-82
2022/01/30 06:05:46;;;;;;;11.45;2.90;;;;;;;4.44;100.00;100079.31;5055505;28;20088;-83
2022/01/30 06:08:15;;;;;;;7.63;3.03;;;;;;;4.48;100.00;100072.72;5055080;28;20065;-82
2022/01/30 06:10:42;;;;;;;7.85;2.55;;;;;;;4.51;100.00;100079.69;5055104;28;20053;-82
2022/01/30 06:13:09;;;;;;;8.35;2.85;;;;;;;4.51;100.00;100079.69;5054522;28;20048;-82
2022/01/30 06:15:40;;;;;;;14.60;2.47;;;;;;;4.51;100.00;100080.56;5054375;28;20442;-82
2022/01/30 06:18:07;;;;;;;6.38;2.50;;;;;;;4.40;100.00;100072.50;5055103;28;20041;-83
2022/01/30 06:20:38;;;;;;;5.93;2.58;;;;;;;4.42;100.00;100075.91;5055187;28;20052;-82
2022/01/30 06:23:05;;;;;;;4.85;1.88;;;;;;;4.37;100.00;100070.91;5054508;28;20045;-83
2022/01/30 06:25:35;;;;;;;8.52;2.42;;;;;;;4.54;100.00;100093.75;5054604;28;20059;-83
2022/01/30 06:28:01;;;;;;;9.85;2.33;;;;;;;4.41;100.00;100088.53;5054601;28;20076;-83
2022/01/30 06:30:30;;;;;;;8.68;1.80;;;;;;;4.46;100.00;100103.44;5054940;28;20041;-82
2022/01/30 06:32:58;;;;;;;5.07;2.17;;;;;;;4.33;100.00;100095.50;5053286;28;20048;-82
2022/01/30 06:35:27;;;;;;;12.50;2.33;;;;;;;4.40;100.00;100113.72;5052961;28;20670;-83
2022/01/30 06:37:54;;;;;;;7.82;2.13;;;;;;;4.40;100.00;100124.50;5051157;28;20503;-82
2022/01/30 06:40:21;;;;;;;14.07;2.45;;;;;;;4.39;100.00;100120.06;5031801;28;20049;-82
2022/01/30 06:42:47;;;;;;;9.48;2.85;;;;;;;4.39;100.00;100111.16;5039614;28;20055;-82
2022/01/30 06:45:18;;;;;;;13.45;3.05;;;;;;;4.41;100.00;100109.19;5051726;28;20064;-82
2022/01/30 06:47:47;;;;;;;7.60;2.97;;;;;;;4.29;100.00;100113.75;5048815;28;20412;-82
2022/01/30 06:50:20;;;;;;;8.18;2.72;;;;;;;4.40;100.00;100132.56;5046279;28;20053;-82
2022/01/30 06:52:47;;;;;;;5.13;2.20;;;;;;;4.37;100.00;100132.81;5052387;28;20106;-82
2022/01/30 06:55:14;;;;;;;9.75;3.13;;;;;;;4.46;100.00;100142.00;5051899;28;20507;-81
2022/01/30 06:57:46;;;;;;;5.45;2.42;;;;;;;4.31;100.00;100119.00;5051998;28;20052;-82
2022/01/30 07:00:15;;;;;;;9.68;2.33;;;;;;;4.40;100.00;100140.66;5052813;28;20052;-82
2022/01/30 07:02:42;;;;;;;12.20;2.10;;;;;;;4.45;100.00;100151.06;5052024;28;20051;-82
2022/01/30 07:05:09;;;;;;;7.15;2.30;;;;;;;4.42;100.00;100145.91;5050230;28;20514;-82
2022/01/30 07:07:43;;;;;;;13.88;3.20;;;;;;;4.39;100.00;100152.38;5052051;28;20053;-82
2022/01/30 07:10:14;;;;;;;9.43;2.78;;;;;;;4.41;100.00;100152.25;5052340;28;20049;-83
2022/01/30 07:12:41;;;;;;;6.28;2.40;;;;;;;4.50;100.00;100165.03;5052440;28;20041;-82
2022/01/30 07:15:09;;;;;;;10.98;3.20;;;;;;;4.42;100.00;100159.38;5051977;28;20450;-83
2022/01/30 07:17:45;;;;;;;11.02;2.95;;;;;;;4.35;100.00;100161.72;5052138;28;20044;-82
2022/01/30 07:20:14;;;;;;;9.88;2.45;;;;;;;4.51;100.00;100187.41;5052129;28;20103;-83
2022/01/30 07:22:44;;;;;;;7.18;1.98;;;;;;;4.51;100.00;100188.25;5054420;28;20072;-82
2022/01/30 07:25:13;;;;;;;11.85;2.50;;;;;;;4.47;100.00;100200.28;5051840;28;20045;-82
2022/01/30 07:27:46;;;;;;;6.70;2.33;;;;;;;4.40;100.00;100181.03;5052025;28;20049;-82
2022/01/30 07:30:15;;;;;;;10.32;2.28;;;;;;;4.52;100.00;100203.47;5052343;28;20064;-82
2022/01/30 07:32:42;;;;;;;10.13;2.70;;;;;;;4.36;100.00;100195.72;5051062;28;20044;-82
2022/01/30 07:35:09;;;;;;;9.32;2.22;;;;;;;4.36;100.00;100194.84;5051662;28;20076;-82
2022/01/30 07:37:38;;;;;;;12.48;2.75;;;;;;;4.42;100.00;100208.69;5051720;28;20114;-82
2022/01/30 07:40:08;;;;;;;9.57;3.17;;;;;;;4.52;100.00;100224.16;5051401;28;20128;-82
2022/01/30 07:42:35;;;;;;;11.55;2.15;;;;;;;4.38;100.00;100211.75;5051498;28;20107;-82
2022/01/30 07:45:01;;;;;;;13.55;3.03;;;;;;;4.43;100.00;100225.72;5051371;28;20048;-82
2022/01/30 07:47:28;;;;;;;11.52;2.97;;;;;;;4.57;100.00;100225.47;5049991;28;20461;-81
2022/01/30 07:49:55;;;;;;;8.40;3.30;;;;;;;4.39;100.00;100210.78;5051383;28;20095;-82
2022/01/30 07:52:23;;;;;;;12.63;3.35;;;;;;;4.37;100.00;100208.19;5051867;28;20076;-83
2022/01/30 07:54:50;;;;;;;7.22;2.55;;;;;;;4.50;100.00;100215.31;5031524;28;20551;-82
2022/01/30 07:57:37;;;;;;;4.72;1.75;;;;;;;4.51;100.00;100228.66;5128877;27;20386;-83
2022/01/30 08:00:05;;;;;;;10.30;2.47;;;;;;;4.40;100.00;100202.56;5109975;28;20044;-82
2022/01/30 08:02:32;;;;;;;8.77;2.40;;;;;;;4.46;100.00;100217.41;5109507;28;20048;-82
2022/01/30 08:04:59;;;;;;;10.70;2.30;;;;;;;4.43;100.00;100226.56;5109062;28;20506;-83
2022/01/30 08:07:26;;;;;;;5.15;1.73;;;;;;;4.20;100.00;100201.44;5109598;28;20462;-83
2022/01/30 08:09:53;;;;;;;5.40;2.70;;;;;;;4.15;100.00;100200.06;5108957;28;20059;-83
2022/01/30 08:12:19;;;;;;;10.02;2.13;;;;;;;4.16;100.00;100208.03;5109376;28;20084;-82
2022/01/30 08:14:49;;;;;;;12.55;3.00;;;;;;;4.15;100.00;100209.00;5108042;28;20043;-82
2022/01/30 08:17:21;;;;;;;11.00;3.35;;;;;;;4.11;100.00;100212.03;5108244;28;20051;-82
2022/01/30 08:19:48;;;;;;;12.40;2.88;;;;;;;4.02;100.00;100189.38;5108121;28;20438;-83
2022/01/30 08:22:15;;;;;;;11.07;2.65;;;;;;;3.97;100.00;100189.75;5108609;28;20584;-82
2022/01/30 08:24:41;;;;;;;16.88;3.22;;;;;;;4.10;100.00;100208.50;5108371;28;20036;-83
2022/01/30 08:27:08;;;;;;;9.60;2.60;;;;;;;4.21;99.88;100205.84;5109432;28;20051;-83
2022/01/30 08:29:35;;;;;;;14.40;3.40;;;;;;;4.15;98.83;100202.75;5108443;28;20146;-83
2022/01/30 08:32:04;;;;;;;13.57;2.63;;;;;;;4.11;97.01;100187.81;5108681;28;20059;-83
2022/01/30 08:34:31;;;;;;;17.55;3.53;;;;;;;4.28;95.43;100210.78;5108999;28;20052;-83
2022/01/30 08:36:57;;;;;;;8.18;2.35;;;;;;;4.25;95.75;100206.47;5107585;28;20101;-83
2022/01/30 08:39:24;;;;;;;7.95;2.45;;;;;;;4.19;96.23;100204.25;5108256;28;20063;-83
2022/01/30 08:41:52;;;;;;;7.03;1.90;;;;;;;4.32;96.77;100215.78;5109185;28;20052;-82
2022/01/30 08:44:19;;;;;;;11.93;2.78;;;;;;;4.33;97.37;100209.41;5107941;28;20051;-84
2022/01/30 08:46:46;;;;;;;16.95;5.85;;;;;;;4.29;97.79;100205.25;5106173;28;20079;-83
2022/01/30 08:49:14;;;;;;;17.98;5.35;;;;;;;4.31;98.61;100189.84;5108210;28;20109;-82
2022/01/30 08:51:41;;;;;;;12.13;3.33;;;;;;;4.35;99.33;100185.06;5108499;28;20051;-83
2022/01/30 08:54:08;;;;;;;8.07;2.63;;;;;;;4.59;98.50;100193.03;5106887;28;20078;-82
2022/01/30 08:56:35;;;;;;;14.32;2.45;;;;;;;4.64;97.00;100188.16;5107671;28;20097;-82
2022/01/30 08:59:01;;;;;;;10.88;3.90;;;;;;;4.75;91.31;100190.00;5108545;28;20104;-83
2022/01/30 09:01:32;;;;;;;9.27;2.08;;;;;;;4.70;88.35;100193.06;5107957;28;20075;-83
2022/01/30 09:04:03;;;;;;;11.75;2.65;;;;;;;4.68;85.91;100189.66;5106952;28;20060;-82
2022/01/30 09:06:31;;;;;;;86.03;32.90;;;;;;;4.67;85.72;100184.38;5107990;28;20506;-82
2022/01/30 09:09:02;;;;;;;254.20;96.25;;;;;;;4.79;83.59;100196.88;5093893;28;20055;-83
2022/01/30 09:11:29;;;;;;;101.72;35.72;;;;;;;4.72;81.63;100180.31;5095049;28;20047;-83
2022/01/30 09:13:55;;;;;;;67.15;22.38;;;;;;;4.78;79.12;100184.38;5093959;28;20044;-84
2022/01/30 09:16:22;;;;;;;91.90;29.45;;;;;;;4.80;77.70;100203.94;5094442;28;20051;-85
2022/01/30 09:18:49;;;;;;;25.65;6.88;;;;;;;4.67;75.42;100187.06;5094307;28;20040;-84
2022/01/30 09:21:15;;;;;;;29.75;8.60;;;;;;;4.76;74.24;100222.22;5094552;28;20135;-83
2022/01/30 09:23:44;;;;;;;17.73;5.32;;;;;;;4.73;72.78;100227.00;5093841;28;20056;-83
2022/01/30 09:26:10;;;;;;;33.88;13.32;;;;;;;4.75;73.38;100225.03;5094650;28;20376;-83
2022/01/30 09:28:37;;;;;;;102.78;35.92;;;;;;;4.84;73.40;100223.44;5092797;28;20074;-83
2022/01/30 09:31:04;;;;;;;105.00;38.58;;;;;;;4.74;70.77;100218.78;5073929;28;20126;-83
2022/01/30 09:33:30;;;;;;;168.77;61.72;;;;;;;4.79;71.17;100237.28;5083981;28;20135;-83
2022/01/30 09:35:59;;;;;;;35.30;11.25;;;;;;;4.70;68.66;100219.16;5091293;28;20047;-83
2022/01/30 09:38:26;;;;;;;188.18;67.68;;;;;;;4.56;68.27;100218.41;5092770;28;20139;-83
2022/01/30 09:41:00;;;;;;;52.75;17.02;;;;;;;4.62;70.27;100235.91;5090588;28;20043;-83
2022/01/30 09:43:28;;;;;;;243.85;88.82;;;;;;;4.65;70.36;100256.34;5092909;28;20097;-82
2022/01/30 09:45:56;;;;;;;206.25;71.00;;;;;;;4.72;71.83;100236.88;5092322;28;20056;-82
2022/01/30 09:48:24;;;;;;;16.70;4.40;;;;;;;4.78;70.57;100239.09;5094038;28;20074;-83
2022/01/30 09:50:51;;;;;;;17.80;3.97;;;;;;;4.71;70.23;100239.72;5094241;28;20074;-83
2022/01/30 09:53:19;;;;;;;15.65;2.63;;;;;;;4.75;68.94;100238.50;5093443;28;20090;-82
2022/01/30 09:55:46;;;;;;;6.85;1.50;;;;;;;4.77;67.84;100250.00;5092933;28;20778;-82
2022/01/30 09:58:15;;;;;;;9.77;2.03;;;;;;;4.87;67.02;100244.75;5093928;28;20436;-82
2022/01/30 10:00:41;;;;;;;17.60;6.07;;;;;;;4.84;66.42;100237.75;5093350;28;20048;-83
2022/01/30 10:03:08;;;;;;;14.93;2.95;;;;;;;4.90;69.11;100260.69;5092934;28;20084;-82
2022/01/30 10:05:36;;;;;;;9.90;1.33;;;;;;;4.90;69.44;100256.13;5093201;28;20047;-82
2022/01/30 10:08:04;;;;;;;10.00;1.73;;;;;;;4.91;68.61;100268.63;5093817;28;20097;-82
2022/01/30 10:10:36;;;;;;;6.75;1.65;;;;;;;4.94;67.56;100262.16;5092796;28;20491;-83
2022/01/30 10:13:07;;;;;;;8.98;3.30;;;;;;;4.90;68.68;100255.28;5093541;28;20105;-82
2022/01/30 10:18:42;;;;;;;12.52;2.42;;;;;;;5.02;70.16;100283.09;5146098;27;20381;-83
2022/01/30 10:21:19;;;;;;;17.73;2.97;;;;;;;5.03;70.99;100266.81;5130425;27;20071;-82
2022/01/30 10:23:45;;;;;;;8.60;3.28;;;;;;;5.01;69.10;100276.00;5135112;27;20076;-83
2022/01/30 10:26:18;;;;;;;11.38;3.33;;;;;;;5.09;70.38;100287.88;5142274;27;20050;-82
2022/01/30 10:28:45;;;;;;;14.82;4.03;;;;;;;5.12;68.84;100274.16;5150691;27;20043;-82
2022/01/30 10:31:12;;;;;;;11.27;1.70;;;;;;;5.20;70.47;100294.25;5150769;27;20055;-82
2022/01/30 10:33:42;;;;;;;25.75;8.30;;;;;;;5.14;69.81;100292.91;5136740;27;20138;-83
2022/01/30 10:36:10;;;;;;;48.50;19.23;;;;;;;5.06;69.09;100268.38;5129397;28;20039;-83
2022/01/30 10:38:40;;;;;;;110.32;49.05;;;;;;;5.08;69.35;100269.97;5129507;27;20443;-82
2022/01/30 10:41:12;;;;;;;;;;;;;;;5.08;68.97;100280.75;5138548;27;20047;-82
2022/01/30 10:43:51;;;;;;;16.38;2.88;;;;;;;4.93;70.53;100276.59;5145717;27;19923;-82
2022/01/30 10:46:19;;;;;;;15.25;3.97;;;;;;;4.82;70.07;100268.50;5150536;27;20404;-83
2022/01/30 10:48:53;;;;;;;11.45;3.63;;;;;;;4.77;70.95;100256.25;5149626;27;20054;-81
2022/01/30 10:51:20;;;;;;;11.30;2.03;;;;;;;4.84;72.03;100266.56;5138857;27;20058;-82
2022/01/30 10:53:49;;;;;;;43.88;13.80;;;;;;;5.06;72.23;100265.69;5142770;27;20046;-82
2022/01/30 10:56:20;;;;;;;17.67;3.85;;;;;;;5.29;70.70;100272.78;5150290;27;20408;-82
2022/01/30 10:59:05;;;;;;;32.15;9.05;;;;;;;5.39;69.62;100254.03;5149884;27;20500;-81
2022/01/30 11:01:32;;;;;;;13.63;4.15;;;;;;;5.50;67.42;100272.03;5135247;27;20055;-82
2022/01/30 11:04:01;;;;;;;11.57;3.35;;;;;;;5.57;66.51;100270.56;5107865;28;20052;-82
2022/01/30 11:06:32;;;;;;;106.53;37.08;;;;;;;5.53;68.70;100261.00;5107998;28;20396;-83
2022/01/30 11:09:06;;;;;;;10.85;4.72;;;;;;;5.46;68.34;100271.41;5122517;27;20403;-83
2022/01/30 11:11:39;;;;;;;29.20;8.60;;;;;;;5.26;67.50;100270.34;5117634;27;20047;-82
2022/01/30 11:14:18;;;;;;;15.23;6.18;;;;;;;5.21;67.23;100269.00;5125177;27;20058;-82
2022/01/30 11:16:59;;;;;;;13.57;2.55;;;;;;;5.16;66.49;100263.97;5148124;27;20069;-83
2022/01/30 11:19:27;;;;;;;10.30;2.40;;;;;;;5.15;66.27;100262.28;5148295;27;20046;-82
2022/01/30 11:21:58;;;;;;;16.85;6.22;;;;;;;5.31;65.99;100269.97;5133392;27;20108;-82
2022/01/30 11:24:26;;;;;;;19.58;5.05;;;;;;;5.40;66.85;100255.75;5131935;27;20150;-82
2022/01/30 11:26:53;;;;;;;13.15;4.32;;;;;;;5.52;65.67;100271.91;5108067;28;20075;-83
2022/01/30 11:29:23;;;;;;;23.17;7.35;;;;;;;5.71;66.40;100265.88;5096026;28;20507;-82
2022/01/30 11:31:52;;;;;;;9.07;2.30;;;;;;;5.85;66.48;100257.47;5093460;28;20086;-83
2022/01/30 11:34:26;;;;;;;10.50;2.25;;;;;;;5.84;67.13;100243.13;5093557;28;20605;-83
2022/01/30 11:36:54;;;;;;;16.45;4.03;;;;;;;5.92;64.64;100250.59;5106167;28;20048;-82
2022/01/30 11:39:22;;;;;;;12.30;3.95;;;;;;;5.96;64.35;100237.69;5093924;28;20075;-82
2022/01/30 11:42:12;;;;;;;20.15;5.95;;;;;;;5.97;64.94;100226.78;5096296;28;20055;-82
2022/01/30 11:44:40;;;;;;;11.85;3.13;;;;;;;5.84;64.43;100209.88;5092558;28;20052;-82
2022/01/30 11:47:30;;;;;;;9.05;2.10;;;;;;;5.82;64.40;100210.00;5112174;28;20043;-82
2022/01/30 11:50:06;;;;;;;5.78;1.30;;;;;;;5.74;64.93;100209.81;5111966;27;20070;-83
2022/01/30 11:53:03;;;;;;;5.68;1.77;;;;;;;5.99;66.12;100205.06;5105418;27;20047;-82
2022/01/30 11:55:49;;;;;;;9.10;1.48;;;;;;;6.13;66.50;100209.31;5097184;28;20472;-83
2022/01/30 11:58:37;;;;;;;12.15;1.80;;;;;;;6.10;66.83;100198.78;5093866;28;20472;-83
2022/01/30 12:01:06;;;;;;;12.00;2.13;;;;;;;6.15;66.65;100185.72;5112914;28;20548;-83
2022/01/30 12:03:35;;;;;;;9.38;1.70;;;;;;;6.09;66.17;100179.00;5109489;28;20079;-82
2022/01/30 12:06:31;;;;;;;6.40;1.63;;;;;;;6.20;67.11;100184.34;5114448;28;20138;-82
2022/01/30 12:09:00;;;;;;;6.78;1.65;;;;;;;6.25;66.03;100180.38;5112141;27;20418;-83
2022/01/30 12:11:56;;;;;;;9.43;1.85;;;;;;;6.59;67.28;100193.66;5114477;28;20055;-82
2022/01/30 12:14:56;;;;;;;6.60;1.60;;;;;;;6.71;65.81;100209.69;5114454;28;20127;-83
2022/01/30 12:17:50;;;;;;;7.40;1.88;;;;;;;6.53;65.61;100176.16;5113582;28;20074;-82
2022/01/30 12:20:17;;;;;;;8.40;1.60;;;;;;;6.62;64.52;100204.22;5114282;28;20062;-82
2022/01/30 12:22:44;;;;;;;6.93;1.38;;;;;;;6.70;65.23;100185.50;5114275;28;20124;-82
2022/01/30 12:25:29;;;;;;;8.77;1.95;;;;;;;6.80;63.10;100180.13;5113181;28;20104;-82
2022/01/30 12:28:00;;;;;;;14.32;1.95;;;;;;;6.72;64.66;100194.31;5119580;27;20398;-82
2022/01/30 12:30:41;;;;;;;12.35;2.00;;;;;;;6.61;64.91;100173.66;5093558;28;20117;-82